Nearby METAR Reports

 

EGNM - Leeds And Bradford, United Kingdom
Distance from station: N 11mi, 18km
Updated: 22/06/2018 21:50
Clear
Clear
 Wind from W
Wind: W 10 mph , 17 km/h
Temperature: 13°C
Dew Point: 7°C
Humidity: 67%
Barometer: 1029 hPa
Summary: Clear
Visibility: greater than 7 miles , 10 km
2018/06/22 20:50 EGNM 222050Z 27009KT CAVOK 13/07 Q1029
EGXG - Church Fenton, United Kingdom
Distance from station: ENE 19mi, 31km
Updated: 19/12/2013 08:50
NOT Current
Clear
Clear
 Wind from SW
Wind: SW 16 mph , 26 km/h
Temperature: 4°C
Wind Chill: -1°C
Dew Point: -1°C
Humidity: 70%
Barometer: 996 hPa
Clouds: Clear
Visibility: 6 miles , 10 km
2013/12/19 08:50 EGXG 190850Z AUTO 23014KT 9999 NCD 04/M01 Q0996
 
EGXU - Linton-On-Ouse, United Kingdom
Distance from station: NNE 28mi, 45km
Updated: 22/06/2018 20:50
Clear
Clear
 Wind from WNW
Wind: WNW 8 mph , 13 km/h
Temperature: 18°C
Dew Point: 5°C
Humidity: 43%
Barometer: 1028 hPa
Clouds: Clear
Visibility: 6 miles , 10 km
2018/06/22 19:50 EGXU 221950Z AUTO 29007KT 9999 // NCD 18/05 Q1028
EGCN - Doncaster Sheffield, United Kingdom
Distance from station: ESE 30mi, 45km
Updated: 22/06/2018 21:50
Clear
Clear
 Wind from NW
Wind: NW 9 mph , 15 km/h
Temperature: 16°C
Dew Point: 2°C
Humidity: 39%
Barometer: 1030 hPa
Summary: Clear
Visibility: greater than 7 miles , 10 km
2018/06/22 20:50 EGCN 222050Z 31008KT CAVOK 16/02 Q1030
 
EGXD - Dishforth RAF, United Kingdom
Distance from station: NNE 31mi, 49km
Updated: 06/06/2016 10:50
NOT Current
Clear
Clear
 Wind from SSE
Wind: SSE 5 mph , 7 km/h
Temperature: 18°C
Dew Point: 11°C
Humidity: 64%
Barometer: 1023 hPa
Clouds: Clear
Visibility: 6 miles , 10 km
2016/06/06 09:50 EGXD 060950Z AUTO 16004KT 9999 // NCD 18/11 Q1023
EGXZ - Topcliffe RAF, United Kingdom
Distance from station: NNE 36mi, 57km
Updated: 22/06/2018 20:50
Clear
Clear
 Wind from WSW
Wind: WSW 8 mph , 13 km/h
Temperature: 17°C
Dew Point: 6°C
Humidity: 49%
Barometer: 1029 hPa
Clouds: Clear
Visibility: 6 miles , 10 km
2018/06/22 19:50 EGXZ 221950Z AUTO 25007KT 9999 NCD 17/06 Q1029
 
EGCC - Manchester Intl, United Kingdom
Distance from station: SW 36mi, 58km
Updated: 22/06/2018 21:50
Clear
Clear
 Wind from W
Wind: W 6 mph , 9 km/h
Temperature: 14°C
Dew Point: 4°C
Humidity: 51%
Barometer: 1031 hPa
Clouds: Clear
Visibility: 6 miles , 10 km
2018/06/22 20:50 EGCC 222050Z AUTO 28005KT 260V330 9999 NCD 14/04 Q1031
EGXE - Leeming RAF, United Kingdom
Distance from station: N 40mi, 65km
Updated: 22/06/2018 20:50
Few Clouds
Few Clouds
 Wind from NW
Wind: NW 8 mph , 13 km/h
Temperature: 16°C
Dew Point: 6°C
Humidity: 52%
Barometer: 1028 hPa
Clouds: Few Clouds
Visibility: 6 miles , 10 km
Cloud details: Few Clouds 5182 m
2018/06/22 19:50 EGXE 221950Z AUTO 31007KT 9999 FEW170/// 16/06 Q1028